Time;durP1;ratioP1;P1;durP2;ratioP2;P2;SDS_P1;SDS_P2;PMS_P1;PMS_P2;Temp;Humidity;BMP_temperature;BMP_pressure;BME280_temperature;BME280_humidity;BME280_pressure;Samples;Min_cycle;Max_cycle;Signal;HPM_P1;HPM_P2
2023/09/19 00:00:33;;;;;;;1.80;0.90;;;;;;;16.58;96.51;99860.44;5014868;28;20699;-78
2023/09/19 00:03:00;;;;;;;0.80;0.60;;;;;;;16.55;96.31;99858.06;5019860;28;20205;-78
2023/09/19 00:05:29;;;;;;;1.93;0.90;;;;;;;16.54;96.87;99859.06;5009790;28;20242;-80
2023/09/19 00:07:58;;;;;;;1.27;0.97;;;;;;;16.56;96.63;99853.53;5011942;28;20592;-78
2023/09/19 00:10:26;;;;;;;1.13;0.70;;;;;;;16.57;96.24;99864.13;5019099;28;20235;-79
2023/09/19 00:12:55;;;;;;;1.73;1.10;;;;;;;16.61;96.04;99860.16;5012271;28;20555;-79
2023/09/19 00:15:22;;;;;;;1.60;0.93;;;;;;;16.59;96.31;99863.97;5014471;28;20216;-79
2023/09/19 00:17:48;;;;;;;1.20;0.80;;;;;;;16.58;97.03;99864.97;5009389;28;20223;-78
2023/09/19 00:20:17;;;;;;;1.27;0.93;;;;;;;16.60;97.08;99873.75;5019436;28;20779;-78
2023/09/19 00:22:44;;;;;;;2.07;1.20;;;;;;;16.57;97.24;99888.31;5013149;28;20205;-78
2023/09/19 00:25:12;;;;;;;2.00;1.10;;;;;;;16.63;96.52;99885.06;5008514;28;20577;-79
2023/09/19 00:27:41;;;;;;;1.70;1.20;;;;;;;16.60;96.82;99889.88;5020521;28;20656;-79
2023/09/19 00:30:14;;;;;;;2.17;1.07;;;;;;;16.60;96.91;99889.88;5024521;28;20264;-79
2023/09/19 00:32:40;;;;;;;3.23;1.40;;;;;;;16.62;96.88;99886.03;5015830;28;20216;-79
2023/09/19 00:35:08;;;;;;;2.00;1.27;;;;;;;16.63;96.71;99887.75;5022804;28;20569;-78
2023/09/19 00:37:35;;;;;;;3.00;1.30;;;;;;;16.59;96.42;99890.88;5018714;28;20649;-78
2023/09/19 00:40:04;;;;;;;3.27;1.70;;;;;;;16.59;96.18;99886.34;5018732;28;20214;-79
2023/09/19 00:42:31;;;;;;;3.80;2.00;;;;;;;16.56;96.33;99881.25;5012533;28;21659;-78
2023/09/19 00:44:57;;;;;;;2.43;1.60;;;;;;;16.54;96.29;99887.78;5012733;28;20208;-77
2023/09/19 00:47:25;;;;;;;3.00;1.90;;;;;;;16.53;96.10;99894.16;5014330;28;20231;-78
2023/09/19 00:49:52;;;;;;;2.20;1.93;;;;;;;16.55;95.67;99889.47;5012775;28;20227;-80
2023/09/19 00:52:20;;;;;;;3.17;1.70;;;;;;;16.57;95.35;99885.63;5025043;28;20738;-78
2023/09/19 00:54:47;;;;;;;2.17;1.70;;;;;;;16.57;95.59;99896.41;5013550;28;20213;-81
2023/09/19 00:57:17;;;;;;;2.50;1.80;;;;;;;16.54;95.50;99904.75;5014616;28;20658;-80
2023/09/19 00:59:44;;;;;;;2.30;2.10;;;;;;;16.57;95.67;99895.56;5013444;28;20254;-80
2023/09/19 01:02:14;;;;;;;2.63;1.90;;;;;;;16.56;95.44;99893.84;5006793;28;20587;-79
2023/09/19 01:04:41;;;;;;;6.13;2.87;;;;;;;16.55;95.57;99898.38;5011927;28;20209;-79
2023/09/19 01:07:08;;;;;;;4.70;2.27;;;;;;;16.52;95.55;99890.63;5015586;28;20326;-79
2023/09/19 01:09:35;;;;;;;3.27;2.40;;;;;;;16.52;95.01;99889.78;5015550;28;20237;-79
2023/09/19 01:12:05;;;;;;;4.87;3.17;;;;;;;16.49;95.18;99903.53;5013763;28;20592;-79
2023/09/19 01:14:43;;;;;;;3.27;2.60;;;;;;;16.49;94.42;99901.69;5013128;28;20215;-79
2023/09/19 01:17:22;;;;;;;4.13;2.90;;;;;;;16.47;94.32;99914.44;5015259;28;20217;-79
2023/09/19 01:20:25;;;;;;;3.47;3.00;;;;;;;16.46;94.07;99912.75;5010955;28;20296;-79
2023/09/19 01:23:03;;;;;;;3.83;2.90;;;;;;;16.44;94.10;99920.13;5010555;28;20206;-81
2023/09/19 01:25:57;;;;;;;2.90;2.60;;;;;;;16.42;94.17;99918.59;5012519;28;20222;-81
2023/09/19 01:28:36;;;;;;;3.97;2.40;;;;;;;16.42;94.30;99918.59;5013038;28;20240;-80
2023/09/19 01:31:11;;;;;;;3.90;2.47;;;;;;;16.39;94.49;99917.03;5011479;28;20219;-80
2023/09/19 01:34:00;;;;;;;4.40;2.10;;;;;;;16.40;94.63;99926.78;5014229;28;20577;-80
2023/09/19 01:36:30;;;;;;;3.40;2.50;;;;;;;16.40;94.78;99928.63;5011395;28;20253;-79
2023/09/19 01:38:58;;;;;;;4.60;2.73;;;;;;;16.37;94.39;99926.25;5013641;28;20220;-80
2023/09/19 01:41:32;;;;;;;2.70;2.30;;;;;;;16.33;94.42;99939.97;5019549;28;20207;-80
2023/09/19 01:44:05;;;;;;;4.03;2.90;;;;;;;16.36;94.21;99938.84;5008151;28;20213;-80
2023/09/19 01:46:36;;;;;;;4.93;2.73;;;;;;;16.37;93.73;99937.84;5019941;28;20595;-80
2023/09/19 01:49:16;;;;;;;5.50;2.80;;;;;;;16.40;93.36;99948.28;5008174;28;20279;-80
2023/09/19 01:51:48;;;;;;;10.50;3.27;;;;;;;16.39;93.02;99943.06;5007105;28;20227;-79
2023/09/19 01:54:24;;;;;;;4.23;3.00;;;;;;;16.39;92.75;99956.50;5012496;28;20201;-80
2023/09/19 01:56:53;;;;;;;5.63;3.10;;;;;;;16.39;92.04;99954.66;5020087;28;20206;-79
2023/09/19 01:59:27;;;;;;;4.63;2.83;;;;;;;16.37;91.74;99953.97;5023710;28;20725;-80
2023/09/19 02:01:56;;;;;;;5.87;2.77;;;;;;;16.38;91.56;99955.66;5012492;28;20202;-80
2023/09/19 02:04:22;;;;;;;3.97;2.47;;;;;;;16.39;92.01;99959.19;5019260;28;20208;-80
2023/09/19 02:06:48;;;;;;;4.43;3.07;;;;;;;16.38;91.57;99939.53;5014267;28;20217;-80
2023/09/19 02:09:15;;;;;;;6.60;3.27;;;;;;;16.43;90.58;99947.16;5017630;28;20695;-81
2023/09/19 02:11:42;;;;;;;6.30;2.93;;;;;;;16.41;90.94;99963.44;5011297;28;20272;-79
2023/09/19 02:14:09;;;;;;;4.93;2.70;;;;;;;16.45;90.25;99969.34;5009709;28;20202;-81
2023/09/19 02:16:35;;;;;;;6.23;2.87;;;;;;;16.41;90.07;99973.34;5024091;28;20213;-80
2023/09/19 02:19:05;;;;;;;5.20;2.70;;;;;;;16.42;90.29;99983.94;5014355;28;20222;-79
2023/09/19 02:21:31;;;;;;;4.63;2.80;;;;;;;16.45;90.29;99972.88;5016641;28;20296;-79
2023/09/19 02:23:58;;;;;;;3.13;2.60;;;;;;;16.44;89.80;99978.41;5014061;28;20237;-79
2023/09/19 02:26:25;;;;;;;7.37;3.20;;;;;;;16.46;89.58;99974.59;5011157;28;20735;-79
2023/09/19 02:28:52;;;;;;;3.23;2.70;;;;;;;16.47;89.74;99978.97;5010929;28;20685;-79
2023/09/19 02:31:19;;;;;;;7.60;2.97;;;;;;;16.47;89.92;99984.34;5022816;28;20292;-80
2023/09/19 02:33:46;;;;;;;6.03;2.90;;;;;;;16.46;89.64;99985.34;5013999;28;20204;-81
2023/09/19 02:36:16;;;;;;;6.87;3.17;;;;;;;16.46;89.33;99987.16;5020434;28;20294;-80
2023/09/19 02:38:43;;;;;;;6.60;2.80;;;;;;;16.48;89.37;99993.25;5016790;28;20311;-81
2023/09/19 02:41:10;;;;;;;5.70;3.07;;;;;;;16.50;88.16;99977.78;5016258;28;20752;-79
2023/09/19 02:43:36;;;;;;;5.43;3.10;;;;;;;16.49;87.03;99987.69;5013047;28;20725;-80
2023/09/19 02:46:03;;;;;;;4.93;3.03;;;;;;;16.49;86.89;99985.00;5014635;28;20937;-79
2023/09/19 02:48:32;;;;;;;4.37;3.20;;;;;;;16.51;86.69;99984.84;5019555;28;20236;-79
2023/09/19 02:50:58;;;;;;;5.80;3.30;;;;;;;16.49;86.72;99987.69;5013224;28;20243;-79
2023/09/19 02:53:27;;;;;;;5.67;3.50;;;;;;;16.46;86.61;99977.28;5014864;28;20237;-79
2023/09/19 02:55:54;;;;;;;5.93;3.67;;;;;;;16.45;87.03;99980.09;5013537;28;20220;-79
2023/09/19 02:58:20;;;;;;;5.60;3.27;;;;;;;16.43;87.29;99980.25;5009458;28;20228;-81
2023/09/19 03:00:47;;;;;;;6.73;3.67;;;;;;;16.42;87.78;99975.88;5021902;28;20671;-79
2023/09/19 03:03:15;;;;;;;4.07;3.27;;;;;;;16.42;87.93;99975.03;5018115;28;20210;-79
2023/09/19 03:05:46;;;;;;;4.03;2.70;;;;;;;16.42;88.35;99977.72;5021951;28;20237;-79
2023/09/19 03:08:14;;;;;;;4.77;2.80;;;;;;;16.36;88.53;99973.78;5015773;28;20225;-79
2023/09/19 03:10:42;;;;;;;5.40;2.50;;;;;;;16.38;88.73;99977.16;5019041;28;20246;-79
2023/09/19 03:13:09;;;;;;;3.83;2.40;;;;;;;16.35;89.22;99976.59;5007881;28;20224;-80
2023/09/19 03:15:38;;;;;;;4.53;2.80;;;;;;;16.33;88.99;99971.38;5011305;28;20315;-80
2023/09/19 03:18:05;;;;;;;4.70;2.67;;;;;;;16.34;88.75;99978.44;5022099;28;20228;-79
2023/09/19 03:20:32;;;;;;;3.50;2.70;;;;;;;16.28;88.74;99981.75;5019324;28;20209;-79
2023/09/19 03:23:00;;;;;;;5.30;3.07;;;;;;;16.25;88.76;99990.13;5013665;28;20221;-79
2023/09/19 03:25:27;;;;;;;5.37;3.20;;;;;;;16.23;88.33;99997.47;5017081;28;20208;-79
2023/09/19 03:27:57;;;;;;;4.30;3.00;;;;;;;16.22;88.23;100009.22;5017994;28;20317;-79
2023/09/19 03:30:24;;;;;;;5.70;4.03;;;;;;;16.18;87.06;99999.75;5015813;28;20243;-79
2023/09/19 03:32:51;;;;;;;5.57;3.80;;;;;;;16.15;86.40;100005.41;5021171;28;20356;-78
2023/09/19 03:35:18;;;;;;;5.53;4.20;;;;;;;16.13;85.99;100010.09;5025038;28;20294;-78
2023/09/19 03:37:44;;;;;;;5.83;3.67;;;;;;;16.09;86.29;100008.72;5015345;28;20297;-79
2023/09/19 03:40:12;;;;;;;4.90;4.40;;;;;;;16.07;85.88;100016.06;5019382;28;20743;-78
2023/09/19 03:42:39;;;;;;;5.27;4.43;;;;;;;16.05;86.21;99996.56;5011362;28;20642;-80
2023/09/19 03:45:11;;;;;;;6.23;3.80;;;;;;;16.07;86.20;100013.38;5019789;28;20209;-79
2023/09/19 03:47:38;;;;;;;5.77;4.20;;;;;;;16.06;86.34;100009.00;5011412;28;20216;-79
2023/09/19 03:50:07;;;;;;;6.23;4.27;;;;;;;16.04;85.94;100025.25;5010281;28;20208;-79
2023/09/19 03:52:33;;;;;;;5.73;4.80;;;;;;;16.00;86.04;100021.19;5021692;28;20253;-79
2023/09/19 03:55:00;;;;;;;7.70;4.53;;;;;;;15.97;85.47;100027.69;5022785;28;20209;-80
2023/09/19 03:57:27;;;;;;;7.47;5.50;;;;;;;15.93;85.12;100028.16;5015362;28;21392;-80
2023/09/19 03:59:54;;;;;;;9.47;4.90;;;;;;;15.90;85.28;100031.97;5026376;28;20702;-79
2023/09/19 04:02:23;;;;;;;9.73;5.07;;;;;;;15.87;85.39;100034.94;5009165;28;20211;-79
2023/09/19 04:04:50;;;;;;;6.33;4.73;;;;;;;15.87;85.60;100045.69;5013431;28;20656;-79
2023/09/19 04:07:16;;;;;;;8.87;5.50;;;;;;;15.84;85.73;100045.13;5003171;28;20261;-79
2023/09/19 04:09:42;;;;;;;7.53;5.27;;;;;;;15.80;85.68;100041.88;5008549;28;20233;-79
2023/09/19 04:12:09;;;;;;;8.90;4.87;;;;;;;15.81;85.43;100045.41;5009497;28;20227;-79
2023/09/19 04:14:35;;;;;;;6.87;4.70;;;;;;;15.79;85.48;100050.91;5020196;28;20242;-79
2023/09/19 04:17:02;;;;;;;8.13;4.87;;;;;;;15.79;85.59;100053.59;5013388;28;20583;-78
2023/09/19 04:19:30;;;;;;;5.83;5.23;;;;;;;15.77;85.74;100055.56;5018502;28;20536;-79
2023/09/19 04:21:56;;;;;;;6.27;5.40;;;;;;;15.76;85.81;100045.00;5015422;28;20324;-79
2023/09/19 04:24:23;;;;;;;8.60;4.93;;;;;;;15.75;85.87;100046.00;5011270;28;20236;-79
2023/09/19 04:26:49;;;;;;;10.20;5.27;;;;;;;15.74;86.00;100055.03;5020278;28;20231;-78
2023/09/19 04:29:16;;;;;;;7.07;5.23;;;;;;;15.72;86.14;100052.50;5014562;28;20299;-79
2023/09/19 04:31:44;;;;;;;9.03;5.90;;;;;;;15.71;86.04;100053.50;5026072;28;20232;-79
2023/09/19 04:34:10;;;;;;;9.47;5.00;;;;;;;15.71;85.80;100052.66;5013834;28;20201;-78
2023/09/19 04:36:38;;;;;;;6.93;4.77;;;;;;;15.65;85.76;100059.44;5012628;28;20654;-79
2023/09/19 04:39:07;;;;;;;9.80;4.87;;;;;;;15.65;85.61;100058.56;5017038;28;20719;-79
2023/09/19 04:41:33;;;;;;;7.70;4.63;;;;;;;15.61;85.63;100071.44;5015026;28;20292;-78
2023/09/19 04:44:00;;;;;;;9.90;4.97;;;;;;;15.58;86.01;100061.00;5015331;28;20214;-79
2023/09/19 04:46:26;;;;;;;8.30;4.73;;;;;;;15.55;85.99;100058.56;5008083;28;20555;-79
2023/09/19 04:48:53;;;;;;;8.20;5.00;;;;;;;15.56;85.75;100069.19;5012286;28;20232;-79
2023/09/19 04:51:20;;;;;;;7.63;5.07;;;;;;;15.52;85.77;100065.06;5011796;28;20229;-79
2023/09/19 04:53:49;;;;;;;9.43;5.00;;;;;;;15.50;86.27;100074.25;5013944;28;20217;-78
2023/09/19 04:56:15;;;;;;;6.70;4.40;;;;;;;15.51;86.58;100070.56;5014308;28;20209;-79
2023/09/19 04:58:42;;;;;;;9.27;4.87;;;;;;;15.51;86.56;100086.69;5005389;28;20229;-79
2023/09/19 05:01:11;;;;;;;4.50;3.80;;;;;;;15.54;86.06;100086.41;5012096;28;20212;-81
2023/09/19 05:03:38;;;;;;;5.00;3.80;;;;;;;15.49;85.93;100091.34;5004133;28;20209;-78
2023/09/19 05:06:05;;;;;;;7.57;4.13;;;;;;;15.47;86.28;100096.00;5014002;28;20630;-80
2023/09/19 05:08:31;;;;;;;6.23;4.17;;;;;;;15.47;85.84;100099.53;5010702;28;20573;-78
2023/09/19 05:11:02;;;;;;;6.80;3.90;;;;;;;15.49;85.37;100104.75;5010115;28;20207;-78
2023/09/19 05:13:28;;;;;;;7.13;4.20;;;;;;;15.54;84.29;100102.50;5012460;28;20209;-79
2023/09/19 05:15:55;;;;;;;6.53;3.90;;;;;;;15.53;84.09;100101.66;5020922;28;20225;-79
2023/09/19 05:18:22;;;;;;;9.57;4.50;;;;;;;15.54;84.21;100102.50;5009471;28;20677;-79
2023/09/19 05:20:49;;;;;;;6.57;4.10;;;;;;;15.52;83.96;100108.00;5018663;28;20212;-78
2023/09/19 05:23:16;;;;;;;8.60;4.57;;;;;;;15.50;84.00;100106.47;5014344;28;20214;-80
2023/09/19 05:25:43;;;;;;;7.87;4.20;;;;;;;15.49;84.43;100115.50;5010915;28;20213;-80
2023/09/19 05:28:14;;;;;;;7.70;4.47;;;;;;;15.48;84.42;100122.69;5013824;28;20927;-79
2023/09/19 05:30:42;;;;;;;6.10;4.53;;;;;;;15.47;84.49;100122.84;5018795;28;20863;-80
2023/09/19 05:33:09;;;;;;;8.03;5.40;;;;;;;15.52;84.33;100132.16;5022164;28;20221;-81
2023/09/19 05:35:37;;;;;;;8.53;4.67;;;;;;;15.52;83.92;100136.69;5013542;28;20207;-78
2023/09/19 05:38:05;;;;;;;9.50;4.53;;;;;;;15.50;83.81;100144.03;5018342;28;20692;-79
2023/09/19 05:40:32;;;;;;;11.03;4.93;;;;;;;15.45;83.61;100146.28;5016244;28;20276;-80
2023/09/19 05:42:58;;;;;;;8.70;4.63;;;;;;;15.46;82.64;100147.97;5009049;28;20223;-78
2023/09/19 05:45:27;;;;;;;7.93;4.00;;;;;;;15.41;82.18;100137.66;5007616;28;20786;-78
2023/09/19 05:47:55;;;;;;;7.53;4.53;;;;;;;15.39;81.03;100136.13;5009547;28;20339;-78
2023/09/19 05:50:24;;;;;;;5.57;3.80;;;;;;;15.37;80.65;100138.09;5019217;28;20212;-80
2023/09/19 05:52:55;;;;;;;11.50;4.73;;;;;;;15.39;80.16;100141.50;5017158;28;20227;-80
2023/09/19 05:55:24;;;;;;;9.40;4.53;;;;;;;15.37;80.22;100140.78;5015574;28;20212;-78
2023/09/19 05:57:51;;;;;;;9.47;3.53;;;;;;;15.40;80.49;100152.09;5016985;28;20210;-79
2023/09/19 06:00:18;;;;;;;8.00;3.60;;;;;;;15.40;80.52;100164.66;5017705;28;20200;-82
2023/09/19 06:02:49;;;;;;;9.37;4.30;;;;;;;15.41;79.80;100163.63;5020572;28;20195;-79
2023/09/19 06:05:16;;;;;;;8.57;4.50;;;;;;;15.37;79.58;100165.78;5018923;28;20212;-79
2023/09/19 06:07:42;;;;;;;7.70;3.77;;;;;;;15.39;78.95;100171.00;5019898;28;20206;-80
2023/09/19 06:10:09;;;;;;;7.80;4.00;;;;;;;15.34;78.29;100176.78;5020964;28;20210;-79
2023/09/19 06:12:39;;;;;;;7.17;3.87;;;;;;;15.41;77.80;100190.47;5013317;28;20278;-79
2023/09/19 06:15:08;;;;;;;6.23;3.53;;;;;;;15.42;78.20;100190.34;5018432;28;20203;-80
2023/09/19 06:17:37;;;;;;;7.87;3.50;;;;;;;15.48;77.83;100192.47;5021298;28;20306;-79
2023/09/19 06:20:12;;;;;;;6.67;3.93;;;;;;;15.46;76.87;100178.34;5016563;28;20308;-80
2023/09/19 06:22:41;;;;;;;9.53;4.10;;;;;;;15.45;77.32;100191.91;5019180;28;20202;-79
2023/09/19 06:25:11;;;;;;;8.13;3.63;;;;;;;15.45;77.63;100191.91;5020158;28;20265;-81
2023/09/19 06:27:37;;;;;;;7.33;3.50;;;;;;;15.47;77.23;100193.47;5011872;28;20283;-79
2023/09/19 06:30:06;;;;;;;6.57;3.80;;;;;;;15.47;77.14;100188.09;5016113;28;20671;-78
2023/09/19 06:32:32;;;;;;;6.97;3.50;;;;;;;15.50;77.47;100200.38;5011682;28;20228;-78
2023/09/19 06:34:59;;;;;;;9.73;3.60;;;;;;;15.50;77.48;100201.25;5018220;28;20211;-78
2023/09/19 06:37:29;;;;;;;12.67;4.40;;;;;;;15.50;77.09;100195.88;5020339;28;20208;-80
2023/09/19 06:39:56;;;;;;;6.57;3.30;;;;;;;15.53;77.24;100197.44;5023581;28;20224;-81
2023/09/19 06:42:23;;;;;;;10.53;3.87;;;;;;;15.55;77.27;100198.13;5028356;28;20572;-79
2023/09/19 06:44:50;;;;;;;8.57;3.77;;;;;;;15.58;76.82;100200.59;5021652;28;20200;-78
2023/09/19 06:47:16;;;;;;;6.37;3.10;;;;;;;15.60;76.48;100194.06;5028341;28;20224;-81
2023/09/19 06:49:43;;;;;;;10.80;4.23;;;;;;;15.64;76.32;100191.94;5028879;28;20249;-80
2023/09/19 06:52:10;;;;;;;10.10;3.17;;;;;;;15.65;76.37;100190.13;5022730;28;20235;-80
2023/09/19 06:54:39;;;;;;;10.57;3.57;;;;;;;15.65;76.45;100190.97;5022025;28;20219;-79
2023/09/19 06:57:09;;;;;;;7.67;3.60;;;;;;;15.69;76.71;100176.28;5025976;28;20199;-79
2023/09/19 06:59:36;;;;;;;6.63;2.67;;;;;;;15.74;76.27;100183.91;5019721;28;20222;-80
2023/09/19 07:02:02;;;;;;;8.90;2.60;;;;;;;15.75;75.42;100169.50;5021287;28;20440;-82
2023/09/19 07:04:29;;;;;;;6.53;2.87;;;;;;;15.75;75.38;100186.47;5018206;28;20233;-80
2023/09/19 07:06:55;;;;;;;8.50;2.33;;;;;;;15.80;75.48;100189.53;5025484;28;20204;-80
2023/09/19 07:09:22;;;;;;;5.53;2.17;;;;;;;15.83;76.07;100205.38;5030381;28;20275;-80
2023/09/19 07:11:51;;;;;;;6.13;2.33;;;;;;;15.90;75.31;100200.31;5021152;28;20347;-81
2023/09/19 07:14:17;;;;;;;9.07;2.20;;;;;;;15.93;75.32;100205.41;5009824;28;20260;-80
2023/09/19 07:16:47;;;;;;;10.60;2.10;;;;;;;16.00;75.21;100211.03;5018837;28;20205;-81
2023/09/19 07:19:14;;;;;;;6.30;1.80;;;;;;;16.06;74.67;100223.91;5024183;28;20235;-79
2023/09/19 07:21:42;;;;;;;6.67;2.10;;;;;;;16.13;73.88;100216.94;5018994;28;20260;-79
2023/09/19 07:24:08;;;;;;;7.10;1.70;;;;;;;16.21;74.05;100215.25;5021490;28;20215;-79
2023/09/19 07:26:35;;;;;;;7.97;2.00;;;;;;;16.30;73.93;100200.94;5024602;28;20219;-79
2023/09/19 07:29:03;;;;;;;6.57;2.00;;;;;;;16.45;72.99;100205.88;5024577;28;20248;-80
2023/09/19 07:31:30;;;;;;;7.50;2.33;;;;;;;16.52;72.18;100207.81;5014625;28;20210;-79
2023/09/19 07:33:57;;;;;;;6.43;2.50;;;;;;;16.63;71.35;100220.28;5015237;28;20266;-80
2023/09/19 07:36:24;;;;;;;9.43;1.60;;;;;;;16.68;70.07;100218.00;5026275;28;20687;-79
2023/09/19 07:38:50;;;;;;;5.73;1.57;;;;;;;16.75;69.09;100215.56;5024656;28;20250;-79
2023/09/19 07:41:17;;;;;;;6.07;1.70;;;;;;;16.78;68.76;100220.66;5022122;28;20222;-79
2023/09/19 07:43:44;;;;;;;6.63;1.93;;;;;;;16.83;68.52;100221.94;5022007;28;20688;-78
2023/09/19 07:46:12;;;;;;;6.37;1.43;;;;;;;16.89;67.80;100223.16;5013383;28;20220;-79
2023/09/19 07:48:40;;;;;;;7.47;2.03;;;;;;;16.94;67.77;100240.56;5008574;28;20246;-80
2023/09/19 07:51:07;;;;;;;5.57;1.90;;;;;;;16.93;66.51;100238.84;5017785;28;20294;-79
2023/09/19 07:53:35;;;;;;;7.83;2.07;;;;;;;16.97;66.77;100239.41;5020061;28;20680;-81
2023/09/19 07:56:06;;;;;;;8.07;1.40;;;;;;;17.04;67.00;100245.03;5021400;28;20205;-80
2023/09/19 07:58:35;;;;;;;4.17;1.47;;;;;;;17.10;67.06;100242.59;5017163;28;20817;-80
2023/09/19 08:01:06;;;;;;;4.63;1.50;;;;;;;17.10;66.40;100253.38;5019989;28;20238;-79
2023/09/19 08:03:34;;;;;;;9.43;1.47;;;;;;;17.11;66.75;100247.00;5008441;28;20200;-80
2023/09/19 08:06:01;;;;;;;4.20;1.47;;;;;;;17.12;66.98;100248.69;5020822;28;20205;-80
2023/09/19 08:08:28;;;;;;;7.50;1.40;;;;;;;17.13;67.27;100250.38;5019416;28;20283;-80
2023/09/19 08:10:56;;;;;;;5.63;1.40;;;;;;;17.16;65.93;100250.09;5019416;28;20670;-80
2023/09/19 08:13:23;;;;;;;5.47;1.70;;;;;;;17.16;65.59;100239.31;5013656;28;20223;-80
2023/09/19 08:15:50;;;;;;;6.10;1.53;;;;;;;17.15;65.30;100242.16;5020254;28;20199;-78
2023/09/19 08:18:17;;;;;;;4.10;1.17;;;;;;;17.19;65.88;100244.41;5013516;28;20321;-80
2023/09/19 08:20:50;;;;;;;6.53;1.57;;;;;;;17.20;65.07;100243.38;5018029;28;20668;-80
2023/09/19 08:23:18;;;;;;;7.17;1.60;;;;;;;17.23;65.14;100248.47;5013714;28;20207;-80
2023/09/19 08:25:45;;;;;;;3.80;1.73;;;;;;;17.27;65.07;100251.72;5016137;28;20669;-80
2023/09/19 08:28:12;;;;;;;5.97;1.70;;;;;;;17.27;64.55;100249.88;5011782;28;20236;-80
2023/09/19 08:30:40;;;;;;;7.93;1.70;;;;;;;17.34;64.16;100242.06;5008035;28;20565;-79
2023/09/19 08:33:07;;;;;;;5.40;2.00;;;;;;;17.43;64.42;100240.31;5010817;28;20226;-79
2023/09/19 08:35:35;;;;;;;6.80;1.97;;;;;;;17.57;63.67;100250.53;5010319;28;20758;-79
2023/09/19 08:38:04;;;;;;;6.73;1.57;;;;;;;17.68;63.17;100262.00;5019245;28;20247;-79
2023/09/19 08:40:33;;;;;;;4.70;1.47;;;;;;;17.79;62.70;100257.38;5014606;28;20973;-78
2023/09/19 08:43:00;;;;;;;8.17;1.50;;;;;;;17.89;61.74;100256.34;5010932;28;20289;-78
2023/09/19 08:45:28;;;;;;;7.23;1.90;;;;;;;17.96;61.75;100252.00;5010056;28;20681;-81
2023/09/19 08:48:02;;;;;;;7.23;1.70;;;;;;;18.06;62.20;100257.31;5013635;28;20213;-81
2023/09/19 08:50:30;;;;;;;4.53;1.53;;;;;;;18.15;61.96;100259.06;5015370;28;20283;-81
2023/09/19 08:53:05;;;;;;;5.23;1.43;;;;;;;18.22;60.40;100245.84;5018302;28;20221;-82
2023/09/19 08:55:33;;;;;;;7.73;1.50;;;;;;;18.28;60.50;100259.53;5010610;28;20207;-78
2023/09/19 08:58:01;;;;;;;5.13;1.20;;;;;;;18.30;59.87;100252.13;5012743;28;20262;-79
2023/09/19 09:00:29;;;;;;;6.40;1.40;;;;;;;18.33;60.45;100262.59;5016521;28;20271;-80
2023/09/19 09:02:57;;;;;;;6.50;1.50;;;;;;;18.32;59.69;100255.50;5016984;28;20206;-80
2023/09/19 09:05:26;;;;;;;3.63;1.40;;;;;;;18.33;59.41;100259.91;5009626;28;20210;-79
2023/09/19 09:07:56;;;;;;;4.07;1.07;;;;;;;18.32;59.65;100266.31;5013586;28;20659;-79
2023/09/19 09:10:24;;;;;;;4.70;1.23;;;;;;;18.34;59.75;100261.59;5015887;28;20214;-79
2023/09/19 09:12:53;;;;;;;4.27;1.30;;;;;;;18.42;59.71;100255.44;5008324;28;20236;-80
2023/09/19 09:15:21;;;;;;;5.13;1.50;;;;;;;18.45;58.87;100254.28;5010106;28;20589;-80
2023/09/19 09:17:50;;;;;;;4.90;1.20;;;;;;;18.42;58.60;100260.84;5011721;28;20206;-79
2023/09/19 09:20:16;;;;;;;4.27;1.27;;;;;;;18.43;58.79;100267.06;5010930;28;20219;-82
2023/09/19 09:22:52;;;;;;;5.53;1.60;;;;;;;18.41;58.06;100269.91;5021612;28;20550;-81
2023/09/19 09:25:18;;;;;;;5.77;1.10;;;;;;;18.36;58.55;100264.16;5018572;28;20241;-78
2023/09/19 09:27:59;;;;;;;4.93;1.40;;;;;;;18.43;59.55;100265.22;5005692;28;20221;-79
2023/09/19 09:30:34;;;;;;;5.73;1.47;;;;;;;18.53;59.32;100257.03;5012223;28;20207;-78
2023/09/19 09:33:10;;;;;;;4.53;1.20;;;;;;;18.63;59.56;100255.13;5017448;28;20291;-78
2023/09/19 09:35:38;;;;;;;4.43;1.20;;;;;;;18.73;58.58;100255.84;5014028;28;20289;-78
2023/09/19 09:38:08;;;;;;;4.47;1.67;;;;;;;18.77;58.55;100249.13;5018330;28;20718;-79
2023/09/19 09:40:47;;;;;;;4.07;1.47;;;;;;;18.85;59.41;100257.25;5015721;28;20300;-79
2023/09/19 09:43:28;;;;;;;3.93;1.33;;;;;;;18.95;58.16;100255.31;5013342;28;20664;-79
2023/09/19 09:49:26;;;;;;;4.90;1.73;;;;;;;18.91;57.01;100253.94;4969503;28;20234;-81
2023/09/19 09:52:01;;;;;;;5.20;1.60;;;;;;;18.95;57.15;100251.75;5012957;28;20202;-80
2023/09/19 09:54:36;;;;;;;6.03;1.60;;;;;;;18.96;57.53;100269.66;5015558;28;20216;-80
2023/09/19 09:57:13;;;;;;;5.40;1.30;;;;;;;18.88;56.83;100272.28;5015494;28;20202;-80
2023/09/19 09:59:53;;;;;;;3.77;1.40;;;;;;;18.86;57.67;100274.28;5018533;28;20403;-79
2023/09/19 10:02:24;;;;;;;3.57;1.37;;;;;;;18.90;58.13;100281.91;5015454;28;20209;-79
2023/09/19 10:05:07;;;;;;;6.40;1.80;;;;;;;19.00;59.74;100282.63;5008693;28;20731;-81
2023/09/19 10:07:36;;;;;;;5.03;1.40;;;;;;;19.08;58.13;100271.06;5013110;28;20205;-80
2023/09/19 10:10:15;;;;;;;4.83;1.27;;;;;;;19.10;57.11;100277.16;5020212;28;20226;-79
2023/09/19 10:12:47;;;;;;;4.57;1.50;;;;;;;19.19;57.35;100276.16;5019865;28;20235;-81
2023/09/19 10:15:17;;;;;;;5.23;1.57;;;;;;;19.21;57.80;100274.16;5018770;28;20211;-79
2023/09/19 10:17:45;;;;;;;5.37;1.43;;;;;;;19.27;57.06;100273.50;5014926;28;20307;-79
2023/09/19 10:20:33;;;;;;;5.80;1.67;;;;;;;19.26;56.26;100277.22;5013660;28;20212;-78
2023/09/19 10:23:01;;;;;;;4.67;1.50;;;;;;;19.27;57.51;100264.56;5018839;28;20226;-78
2023/09/19 10:25:30;;;;;;;6.07;1.23;;;;;;;19.29;57.40;100271.50;5017091;28;20206;-79
2023/09/19 10:27:59;;;;;;;3.40;1.40;;;;;;;19.31;57.75;100269.50;5021320;28;20218;-78
2023/09/19 10:30:30;;;;;;;5.90;2.00;;;;;;;19.38;57.71;100275.06;5013101;28;20639;-79
2023/09/19 10:33:01;;;;;;;9.77;1.80;;;;;;;19.38;57.24;100267.81;5015985;28;20210;-78
2023/09/19 10:35:28;;;;;;;6.50;2.47;;;;;;;19.47;57.60;100266.00;5020294;28;20212;-78
2023/09/19 10:37:57;;;;;;;4.53;1.70;;;;;;;19.55;56.59;100270.59;5006412;28;20222;-78
2023/09/19 10:40:30;;;;;;;4.17;1.40;;;;;;;19.50;56.38;100264.88;5015765;28;20206;-80
2023/09/19 10:43:03;;;;;;;6.27;2.50;;;;;;;19.53;56.08;100261.81;5010312;28;20211;-78
2023/09/19 10:45:32;;;;;;;6.20;1.53;;;;;;;19.52;56.26;100262.84;5014204;28;20253;-80
2023/09/19 10:47:59;;;;;;;5.50;2.20;;;;;;;19.58;55.88;100265.72;5009940;28;20235;-79
2023/09/19 10:50:26;;;;;;;6.57;1.73;;;;;;;19.59;56.25;100261.16;5017073;28;20722;-81
2023/09/19 10:53:00;;;;;;;8.60;1.83;;;;;;;19.55;54.69;100257.94;5013214;28;20628;-78
2023/09/19 10:55:29;;;;;;;6.07;1.70;;;;;;;19.57;55.06;100279.38;5013653;28;20272;-79
2023/09/19 10:57:57;;;;;;;6.07;1.73;;;;;;;19.57;55.39;100263.19;5013662;28;20200;-81
2023/09/19 11:00:27;;;;;;;5.83;2.10;;;;;;;19.63;55.32;100265.22;5015369;28;20207;-79
2023/09/19 11:03:23;;;;;;;4.90;2.50;;;;;;;19.67;55.05;100258.50;5013485;28;20660;-79
2023/09/19 11:06:09;;;;;;;5.10;1.77;;;;;;;19.69;54.52;100251.91;5012300;28;20202;-79
2023/09/19 11:09:04;;;;;;;6.00;1.70;;;;;;;19.71;54.80;100270.63;5010352;28;20645;-78
2023/09/19 11:11:41;;;;;;;4.53;1.67;;;;;;;19.68;54.57;100271.84;5018122;28;20210;-79
2023/09/19 11:14:39;;;;;;;5.33;1.70;;;;;;;19.67;54.49;100264.75;5017803;28;20228;-79
2023/09/19 11:17:41;;;;;;;5.73;2.40;;;;;;;19.58;54.37;100259.47;5010722;28;20200;-78
2023/09/19 11:23:26;;;;;;;5.57;1.50;;;;;;;19.64;54.75;100246.16;5011654;28;20221;-79
2023/09/19 11:25:54;;;;;;;5.17;1.60;;;;;;;19.66;54.61;100251.41;5023260;28;20473;-79
2023/09/19 11:28:35;;;;;;;4.80;1.90;;;;;;;19.69;54.49;100251.91;5020972;28;20229;-79
2023/09/19 11:31:48;;;;;;;5.73;1.60;;;;;;;19.76;55.30;100258.34;5014748;28;20249;-79
2023/09/19 11:34:44;;;;;;;2.93;1.73;;;;;;;19.81;54.34;100246.19;4959461;28;20397;-80
2023/09/19 11:38:11;;;;;;;5.03;2.13;;;;;;;19.82;54.00;100242.47;5011656;28;20235;-78
2023/09/19 11:40:39;;;;;;;5.73;1.97;;;;;;;19.91;54.60;100250.41;5006996;28;20206;-79
2023/09/19 11:43:35;;;;;;;9.30;2.00;;;;;;;19.97;53.71;100248.91;5022024;28;20209;-80
2023/09/19 11:46:06;;;;;;;5.13;2.13;;;;;;;19.98;54.15;100251.44;5016855;28;20285;-79